sensor_id;sensor_type;location;lat;lon;timestamp;pressure;altitude;pressure_sealevel;temperature;humidity
11114;BME280;5610;52.154;9.198;2023-06-10T00:02:18;100762.81;;;19.73;83.09
11114;BME280;5610;52.154;9.198;2023-06-10T00:05:04;100762.66;;;19.75;83.39
11114;BME280;5610;52.154;9.198;2023-06-10T00:07:49;100760.84;;;19.66;82.83
11114;BME280;5610;52.154;9.198;2023-06-10T00:10:37;100760.56;;;19.69;83.46
11114;BME280;5610;52.154;9.198;2023-06-10T00:13:22;100753.72;;;19.74;84.96
11114;BME280;5610;52.154;9.198;2023-06-10T00:16:08;100761.25;;;19.71;83.36
11114;BME280;5610;52.154;9.198;2023-06-10T00:18:53;100752.19;;;19.62;83.19
11114;BME280;5610;52.154;9.198;2023-06-10T00:21:40;100762.72;;;19.56;82.48
11114;BME280;5610;52.154;9.198;2023-06-10T00:24:25;100758.50;;;19.43;83.09
11114;BME280;5610;52.154;9.198;2023-06-10T00:27:11;100756.22;;;19.48;84.44
11114;BME280;5610;52.154;9.198;2023-06-10T00:29:56;100746.91;;;19.33;82.87
11114;BME280;5610;52.154;9.198;2023-06-10T00:32:42;100747.50;;;19.27;83.65
11114;BME280;5610;52.154;9.198;2023-06-10T00:35:27;100746.75;;;19.35;83.06
11114;BME280;5610;52.154;9.198;2023-06-10T00:38:13;100751.59;;;19.31;84.37
11114;BME280;5610;52.154;9.198;2023-06-10T00:40:58;100743.63;;;19.30;83.58
11114;BME280;5610;52.154;9.198;2023-06-10T00:43:45;100741.66;;;19.22;84.35
11114;BME280;5610;52.154;9.198;2023-06-10T00:46:30;100746.16;;;19.04;85.78
11114;BME280;5610;52.154;9.198;2023-06-10T00:49:17;100746.84;;;19.06;82.80
11114;BME280;5610;52.154;9.198;2023-06-10T00:52:04;100747.28;;;19.01;84.65
11114;BME280;5610;52.154;9.198;2023-06-10T00:54:51;100749.69;;;19.04;83.84
11114;BME280;5610;52.154;9.198;2023-06-10T00:57:36;100758.06;;;19.01;84.89
11114;BME280;5610;52.154;9.198;2023-06-10T01:00:24;100754.97;;;18.96;83.69
11114;BME280;5610;52.154;9.198;2023-06-10T01:03:10;100751.81;;;19.01;82.03
11114;BME280;5610;52.154;9.198;2023-06-10T01:05:59;100757.06;;;19.02;84.21
11114;BME280;5610;52.154;9.198;2023-06-10T01:08:54;100755.69;;;18.98;87.23
11114;BME280;5610;52.154;9.198;2023-06-10T01:11:47;100745.16;;;19.05;86.87
11114;BME280;5610;52.154;9.198;2023-06-10T01:14:33;100747.00;;;19.04;90.06
11114;BME280;5610;52.154;9.198;2023-06-10T01:17:19;100745.31;;;18.93;87.15
11114;BME280;5610;52.154;9.198;2023-06-10T01:20:06;100747.31;;;18.91;84.73
11114;BME280;5610;52.154;9.198;2023-06-10T01:22:58;100751.75;;;18.83;85.76
11114;BME280;5610;52.154;9.198;2023-06-10T01:25:47;100748.03;;;18.84;86.95
11114;BME280;5610;52.154;9.198;2023-06-10T01:28:36;100759.00;;;18.82;89.34
11114;BME280;5610;52.154;9.198;2023-06-10T01:31:28;100765.34;;;18.81;94.16
11114;BME280;5610;52.154;9.198;2023-06-10T01:34:19;100766.09;;;18.74;96.84
11114;BME280;5610;52.154;9.198;2023-06-10T01:37:06;100761.25;;;18.58;97.37
11114;BME280;5610;52.154;9.198;2023-06-10T01:39:55;100753.31;;;18.47;92.92
11114;BME280;5610;52.154;9.198;2023-06-10T01:42:42;100758.69;;;18.37;90.92
11114;BME280;5610;52.154;9.198;2023-06-10T01:45:27;100760.97;;;18.22;88.96
11114;BME280;5610;52.154;9.198;2023-06-10T01:48:12;100745.38;;;18.26;90.67
11114;BME280;5610;52.154;9.198;2023-06-10T01:50:58;100756.25;;;18.24;89.24
11114;BME280;5610;52.154;9.198;2023-06-10T01:53:43;100758.13;;;18.24;87.36
11114;BME280;5610;52.154;9.198;2023-06-10T01:56:30;100757.56;;;18.20;88.29
11114;BME280;5610;52.154;9.198;2023-06-10T01:59:15;100762.91;;;18.01;91.23
11114;BME280;5610;52.154;9.198;2023-06-10T02:02:00;100766.91;;;18.06;90.10
11114;BME280;5610;52.154;9.198;2023-06-10T02:04:45;100772.16;;;18.08;88.18
11114;BME280;5610;52.154;9.198;2023-06-10T02:07:30;100773.72;;;18.10;91.26
11114;BME280;5610;52.154;9.198;2023-06-10T02:10:15;100774.31;;;18.14;90.00
11114;BME280;5610;52.154;9.198;2023-06-10T02:13:02;100774.31;;;18.14;92.29
11114;BME280;5610;52.154;9.198;2023-06-10T02:15:47;100780.50;;;17.95;88.47
11114;BME280;5610;52.154;9.198;2023-06-10T02:18:33;100785.03;;;17.95;89.64
11114;BME280;5610;52.154;9.198;2023-06-10T02:21:18;100785.75;;;17.97;90.18
11114;BME280;5610;52.154;9.198;2023-06-10T02:24:04;100799.50;;;17.84;91.43
11114;BME280;5610;52.154;9.198;2023-06-10T02:26:50;100802.34;;;17.92;91.54
11114;BME280;5610;52.154;9.198;2023-06-10T02:29:37;100794.09;;;17.84;90.55
11114;BME280;5610;52.154;9.198;2023-06-10T02:32:22;100798.75;;;17.72;92.85
11114;BME280;5610;52.154;9.198;2023-06-10T02:35:09;100799.53;;;17.63;93.37
11114;BME280;5610;52.154;9.198;2023-06-10T02:37:56;100794.53;;;17.58;91.90
11114;BME280;5610;52.154;9.198;2023-06-10T02:40:42;100797.09;;;17.29;95.28
11114;BME280;5610;52.154;9.198;2023-06-10T02:43:28;100795.25;;;17.30;95.76
11114;BME280;5610;52.154;9.198;2023-06-10T02:46:15;100804.38;;;17.39;96.17
11114;BME280;5610;52.154;9.198;2023-06-10T02:49:01;100803.22;;;17.32;96.78
11114;BME280;5610;52.154;9.198;2023-06-10T02:51:47;100808.69;;;17.20;98.10
11114;BME280;5610;52.154;9.198;2023-06-10T02:54:33;100802.56;;;17.18;100.00
11114;BME280;5610;52.154;9.198;2023-06-10T02:57:20;100807.38;;;17.15;100.00
11114;BME280;5610;52.154;9.198;2023-06-10T03:00:07;100811.16;;;17.12;100.00
11114;BME280;5610;52.154;9.198;2023-06-10T03:02:58;100813.84;;;17.12;100.00
11114;BME280;5610;52.154;9.198;2023-06-10T03:05:50;100809.09;;;16.95;100.00
11114;BME280;5610;52.154;9.198;2023-06-10T03:08:37;100807.75;;;17.10;100.00
11114;BME280;5610;52.154;9.198;2023-06-10T03:11:27;100807.06;;;17.08;100.00
11114;BME280;5610;52.154;9.198;2023-06-10T03:14:12;100811.72;;;17.06;100.00
11114;BME280;5610;52.154;9.198;2023-06-10T03:16:57;100808.47;;;16.91;100.00
11114;BME280;5610;52.154;9.198;2023-06-10T03:19:45;100810.88;;;16.85;100.00
11114;BME280;5610;52.154;9.198;2023-06-10T03:22:30;100802.00;;;16.73;100.00
11114;BME280;5610;52.154;9.198;2023-06-10T03:25:20;100806.25;;;16.75;100.00
11114;BME280;5610;52.154;9.198;2023-06-10T03:28:09;100812.38;;;16.66;100.00
11114;BME280;5610;52.154;9.198;2023-06-10T03:30:55;100808.88;;;16.55;100.00
11114;BME280;5610;52.154;9.198;2023-06-10T03:33:42;100815.59;;;16.60;100.00
11114;BME280;5610;52.154;9.198;2023-06-10T03:36:29;100813.53;;;16.53;100.00
11114;BME280;5610;52.154;9.198;2023-06-10T03:39:15;100812.66;;;16.63;100.00
11114;BME280;5610;52.154;9.198;2023-06-10T03:42:00;100824.28;;;16.64;100.00
11114;BME280;5610;52.154;9.198;2023-06-10T03:44:46;100825.22;;;16.74;100.00
11114;BME280;5610;52.154;9.198;2023-06-10T03:47:33;100831.22;;;16.78;100.00
11114;BME280;5610;52.154;9.198;2023-06-10T03:50:19;100831.53;;;16.84;100.00
11114;BME280;5610;52.154;9.198;2023-06-10T03:53:07;100838.50;;;16.87;100.00
11114;BME280;5610;52.154;9.198;2023-06-10T03:55:53;100833.25;;;16.85;100.00
11114;BME280;5610;52.154;9.198;2023-06-10T03:58:41;100832.66;;;16.82;100.00
11114;BME280;5610;52.154;9.198;2023-06-10T04:01:27;100836.91;;;16.84;100.00
11114;BME280;5610;52.154;9.198;2023-06-10T04:04:14;100833.34;;;16.84;100.00
11114;BME280;5610;52.154;9.198;2023-06-10T04:07:00;100838.22;;;16.90;100.00
11114;BME280;5610;52.154;9.198;2023-06-10T04:09:47;100830.47;;;16.96;100.00
11114;BME280;5610;52.154;9.198;2023-06-10T04:12:32;100832.19;;;16.97;100.00
11114;BME280;5610;52.154;9.198;2023-06-10T04:15:18;100831.09;;;17.00;100.00
11114;BME280;5610;52.154;9.198;2023-06-10T04:18:04;100837.47;;;16.99;100.00
11114;BME280;5610;52.154;9.198;2023-06-10T04:20:49;100839.41;;;16.97;100.00
11114;BME280;5610;52.154;9.198;2023-06-10T04:23:35;100841.97;;;16.78;100.00
11114;BME280;5610;52.154;9.198;2023-06-10T04:26:24;100837.31;;;17.00;100.00
11114;BME280;5610;52.154;9.198;2023-06-10T04:29:10;100837.31;;;17.00;100.00
11114;BME280;5610;52.154;9.198;2023-06-10T04:31:55;100844.94;;;16.95;100.00
11114;BME280;5610;52.154;9.198;2023-06-10T04:34:40;100841.84;;;17.00;100.00
11114;BME280;5610;52.154;9.198;2023-06-10T04:37:26;100837.72;;;16.96;100.00
11114;BME280;5610;52.154;9.198;2023-06-10T04:40:13;100845.97;;;16.83;100.00
11114;BME280;5610;52.154;9.198;2023-06-10T04:43:01;100850.44;;;16.94;100.00
11114;BME280;5610;52.154;9.198;2023-06-10T04:45:46;100850.59;;;16.92;100.00
11114;BME280;5610;52.154;9.198;2023-06-10T04:48:32;100849.66;;;16.82;100.00
11114;BME280;5610;52.154;9.198;2023-06-10T04:51:19;100846.63;;;16.96;100.00
11114;BME280;5610;52.154;9.198;2023-06-10T04:54:04;100845.97;;;16.83;100.00
11114;BME280;5610;52.154;9.198;2023-06-10T04:56:49;100845.97;;;16.83;100.00
11114;BME280;5610;52.154;9.198;2023-06-10T04:59:35;100849.06;;;16.79;100.00
11114;BME280;5610;52.154;9.198;2023-06-10T05:02:22;100847.34;;;16.78;100.00
11114;BME280;5610;52.154;9.198;2023-06-10T05:05:07;100843.75;;;16.88;100.00
11114;BME280;5610;52.154;9.198;2023-06-10T05:07:52;100850.06;;;16.78;100.00
11114;BME280;5610;52.154;9.198;2023-06-10T05:10:37;100847.47;;;16.76;100.00
11114;BME280;5610;52.154;9.198;2023-06-10T05:13:22;100852.75;;;16.78;100.00
11114;BME280;5610;52.154;9.198;2023-06-10T05:16:09;100847.16;;;16.90;100.00
11114;BME280;5610;52.154;9.198;2023-06-10T05:18:54;100845.72;;;17.07;100.00
11114;BME280;5610;52.154;9.198;2023-06-10T05:21:39;100840.88;;;17.22;100.00
11114;BME280;5610;52.154;9.198;2023-06-10T05:24:24;100850.66;;;17.23;100.00
11114;BME280;5610;52.154;9.198;2023-06-10T05:27:09;100851.13;;;17.28;100.00
11114;BME280;5610;52.154;9.198;2023-06-10T05:29:55;100841.09;;;17.40;100.00
11114;BME280;5610;52.154;9.198;2023-06-10T05:32:41;100850.59;;;17.34;100.00
11114;BME280;5610;52.154;9.198;2023-06-10T05:35:27;100848.28;;;17.29;100.00
11114;BME280;5610;52.154;9.198;2023-06-10T05:38:12;100860.56;;;17.43;100.00
11114;BME280;5610;52.154;9.198;2023-06-10T05:40:57;100851.03;;;17.39;100.00
11114;BME280;5610;52.154;9.198;2023-06-10T05:43:43;100848.06;;;17.42;100.00
11114;BME280;5610;52.154;9.198;2023-06-10T05:46:28;100851.00;;;17.60;100.00
11114;BME280;5610;52.154;9.198;2023-06-10T05:49:15;100840.28;;;17.70;100.00
11114;BME280;5610;52.154;9.198;2023-06-10T05:52:00;100852.97;;;17.79;100.00
11114;BME280;5610;52.154;9.198;2023-06-10T05:54:45;100835.22;;;17.76;100.00
11114;BME280;5610;52.154;9.198;2023-06-10T05:57:31;100839.78;;;17.86;100.00
11114;BME280;5610;52.154;9.198;2023-06-10T06:00:17;100844.66;;;18.01;100.00
11114;BME280;5610;52.154;9.198;2023-06-10T06:03:02;100841.44;;;18.17;100.00
11114;BME280;5610;52.154;9.198;2023-06-10T06:05:49;100836.31;;;18.14;100.00
11114;BME280;5610;52.154;9.198;2023-06-10T06:08:34;100832.22;;;18.29;100.00
11114;BME280;5610;52.154;9.198;2023-06-10T06:11:19;100836.06;;;18.46;100.00
11114;BME280;5610;52.154;9.198;2023-06-10T06:14:04;100827.56;;;18.51;100.00
11114;BME280;5610;52.154;9.198;2023-06-10T06:16:49;100831.41;;;18.58;100.00
11114;BME280;5610;52.154;9.198;2023-06-10T06:19:35;100834.88;;;18.70;100.00
11114;BME280;5610;52.154;9.198;2023-06-10T06:22:21;100834.72;;;18.71;100.00
11114;BME280;5610;52.154;9.198;2023-06-10T06:25:06;100825.91;;;18.79;100.00
11114;BME280;5610;52.154;9.198;2023-06-10T06:27:51;100822.34;;;18.88;100.00
11114;BME280;5610;52.154;9.198;2023-06-10T06:30:37;100817.63;;;19.00;100.00
11114;BME280;5610;52.154;9.198;2023-06-10T06:33:22;100816.34;;;19.13;100.00
11114;BME280;5610;52.154;9.198;2023-06-10T06:36:07;100823.13;;;19.27;100.00
11114;BME280;5610;52.154;9.198;2023-06-10T06:38:54;100824.09;;;19.45;100.00
11114;BME280;5610;52.154;9.198;2023-06-10T06:41:40;100830.44;;;19.54;100.00
11114;BME280;5610;52.154;9.198;2023-06-10T06:44:25;100829.84;;;19.70;100.00
11114;BME280;5610;52.154;9.198;2023-06-10T06:47:11;100832.50;;;19.80;100.00
11114;BME280;5610;52.154;9.198;2023-06-10T06:49:56;100830.16;;;19.67;100.00
11114;BME280;5610;52.154;9.198;2023-06-10T06:52:41;100830.50;;;19.82;100.00
11114;BME280;5610;52.154;9.198;2023-06-10T06:55:28;100830.88;;;19.96;100.00
11114;BME280;5610;52.154;9.198;2023-06-10T06:58:13;100834.66;;;20.03;100.00
11114;BME280;5610;52.154;9.198;2023-06-10T07:00:58;100841.78;;;20.22;100.00
11114;BME280;5610;52.154;9.198;2023-06-10T07:03:43;100840.50;;;20.26;100.00
11114;BME280;5610;52.154;9.198;2023-06-10T07:06:28;100843.66;;;20.49;100.00
11114;BME280;5610;52.154;9.198;2023-06-10T07:09:14;100844.81;;;20.65;100.00
11114;BME280;5610;52.154;9.198;2023-06-10T07:12:00;100852.31;;;20.71;100.00
11114;BME280;5610;52.154;9.198;2023-06-10T07:14:45;100849.63;;;20.89;100.00
11114;BME280;5610;52.154;9.198;2023-06-10T07:17:30;100860.06;;;21.01;100.00
11114;BME280;5610;52.154;9.198;2023-06-10T07:20:16;100847.31;;;21.20;100.00
11114;BME280;5610;52.154;9.198;2023-06-10T07:23:02;100856.97;;;21.40;100.00
11114;BME280;5610;52.154;9.198;2023-06-10T07:25:47;100867.41;;;21.53;100.00
11114;BME280;5610;52.154;9.198;2023-06-10T07:28:33;100863.25;;;21.66;100.00
11114;BME280;5610;52.154;9.198;2023-06-10T07:31:18;100865.06;;;21.58;98.45
11114;BME280;5610;52.154;9.198;2023-06-10T07:34:03;100862.66;;;21.81;100.00
11114;BME280;5610;52.154;9.198;2023-06-10T07:36:49;100859.66;;;21.92;95.75
11114;BME280;5610;52.154;9.198;2023-06-10T07:39:34;100858.88;;;22.08;94.09
11114;BME280;5610;52.154;9.198;2023-06-10T07:42:19;100859.09;;;22.14;90.27
11114;BME280;5610;52.154;9.198;2023-06-10T07:45:07;100863.69;;;22.22;91.31
11114;BME280;5610;52.154;9.198;2023-06-10T07:47:52;100857.66;;;22.44;98.75
11114;BME280;5610;52.154;9.198;2023-06-10T07:50:38;100857.47;;;22.38;92.20
11114;BME280;5610;52.154;9.198;2023-06-10T07:53:23;100859.34;;;22.54;94.65
11114;BME280;5610;52.154;9.198;2023-06-10T07:56:08;100860.94;;;22.72;90.48
11114;BME280;5610;52.154;9.198;2023-06-10T07:58:53;100863.16;;;22.77;88.32
11114;BME280;5610;52.154;9.198;2023-06-10T08:01:39;100857.56;;;22.95;90.22
11114;BME280;5610;52.154;9.198;2023-06-10T08:04:26;100860.28;;;22.87;88.83
11114;BME280;5610;52.154;9.198;2023-06-10T08:07:11;100869.13;;;22.89;86.57
11114;BME280;5610;52.154;9.198;2023-06-10T08:09:56;100864.88;;;23.02;88.42
11114;BME280;5610;52.154;9.198;2023-06-10T08:12:42;100865.72;;;23.03;87.26
11114;BME280;5610;52.154;9.198;2023-06-10T08:15:27;100870.63;;;23.24;90.01
11114;BME280;5610;52.154;9.198;2023-06-10T08:18:13;100857.03;;;23.24;85.22
11114;BME280;5610;52.154;9.198;2023-06-10T08:20:59;100869.09;;;22.97;86.89
11114;BME280;5610;52.154;9.198;2023-06-10T08:23:44;100866.06;;;23.24;86.87
11114;BME280;5610;52.154;9.198;2023-06-10T08:26:29;100864.19;;;23.41;87.20
11114;BME280;5610;52.154;9.198;2023-06-10T08:29:15;100863.78;;;23.52;90.53
11114;BME280;5610;52.154;9.198;2023-06-10T08:32:00;100869.69;;;23.89;85.39
11114;BME280;5610;52.154;9.198;2023-06-10T08:34:46;100865.94;;;23.98;85.85
11114;BME280;5610;52.154;9.198;2023-06-10T08:37:32;100858.28;;;24.24;84.00
11114;BME280;5610;52.154;9.198;2023-06-10T08:40:17;100870.06;;;24.25;79.82
11114;BME280;5610;52.154;9.198;2023-06-10T08:43:06;100871.22;;;24.38;79.40
11114;BME280;5610;52.154;9.198;2023-06-10T08:45:53;100866.75;;;24.69;82.44
11114;BME280;5610;52.154;9.198;2023-06-10T08:48:42;100865.72;;;24.92;83.89
11114;BME280;5610;52.154;9.198;2023-06-10T08:51:29;100872.47;;;25.05;79.55
11114;BME280;5610;52.154;9.198;2023-06-10T08:54:18;100863.44;;;25.04;74.99
11114;BME280;5610;52.154;9.198;2023-06-10T08:57:06;100861.63;;;25.34;81.47
11114;BME280;5610;52.154;9.198;2023-06-10T08:59:52;100873.97;;;25.30;75.20
11114;BME280;5610;52.154;9.198;2023-06-10T09:02:38;100871.94;;;25.62;78.07
11114;BME280;5610;52.154;9.198;2023-06-10T09:05:23;100871.75;;;25.93;78.15
11114;BME280;5610;52.154;9.198;2023-06-10T09:08:10;100863.00;;;25.68;70.13
11114;BME280;5610;52.154;9.198;2023-06-10T09:10:55;100863.97;;;25.90;69.90
11114;BME280;5610;52.154;9.198;2023-06-10T09:13:41;100865.47;;;25.78;70.68
11114;BME280;5610;52.154;9.198;2023-06-10T09:16:27;100862.63;;;25.86;70.42
11114;BME280;5610;52.154;9.198;2023-06-10T09:19:12;100860.69;;;25.94;69.26
11114;BME280;5610;52.154;9.198;2023-06-10T09:21:59;100856.84;;;26.40;73.88
11114;BME280;5610;52.154;9.198;2023-06-10T09:24:48;100856.63;;;26.77;66.85
11114;BME280;5610;52.154;9.198;2023-06-10T09:27:44;100852.81;;;27.15;63.04
11114;BME280;5610;52.154;9.198;2023-06-10T09:30:31;100843.19;;;27.25;60.63
11114;BME280;5610;52.154;9.198;2023-06-10T09:33:16;100843.25;;;27.32;59.65
11114;BME280;5610;52.154;9.198;2023-06-10T09:36:02;100849.25;;;27.42;56.30
11114;BME280;5610;52.154;9.198;2023-06-10T09:38:49;100841.72;;;27.79;59.73
11114;BME280;5610;52.154;9.198;2023-06-10T09:41:40;100837.22;;;28.19;57.98
11114;BME280;5610;52.154;9.198;2023-06-10T09:44:25;100842.47;;;28.55;58.19
11114;BME280;5610;52.154;9.198;2023-06-10T09:47:19;100835.75;;;28.84;57.37
11114;BME280;5610;52.154;9.198;2023-06-10T09:50:05;100825.88;;;29.10;54.07
11114;BME280;5610;52.154;9.198;2023-06-10T09:52:51;100831.34;;;29.43;55.42
11114;BME280;5610;52.154;9.198;2023-06-10T09:55:37;100828.78;;;29.74;52.72
11114;BME280;5610;52.154;9.198;2023-06-10T09:58:35;100824.84;;;30.02;49.80
11114;BME280;5610;52.154;9.198;2023-06-10T10:01:21;100831.59;;;30.13;49.12
11114;BME280;5610;52.154;9.198;2023-06-10T10:04:08;100829.88;;;30.25;47.57
11114;BME280;5610;52.154;9.198;2023-06-10T10:06:53;100841.47;;;30.65;50.26
11114;BME280;5610;52.154;9.198;2023-06-10T10:09:39;100824.47;;;30.81;47.71
11114;BME280;5610;52.154;9.198;2023-06-10T10:12:25;100827.69;;;31.28;45.51
11114;BME280;5610;52.154;9.198;2023-06-10T10:15:13;100818.63;;;31.64;46.18
11114;BME280;5610;52.154;9.198;2023-06-10T10:18:05;100821.94;;;31.91;43.97
11114;BME280;5610;52.154;9.198;2023-06-10T10:20:51;100825.88;;;32.02;43.30
11114;BME280;5610;52.154;9.198;2023-06-10T10:23:45;100817.69;;;31.95;42.57
11114;BME280;5610;52.154;9.198;2023-06-10T10:26:34;100822.97;;;31.79;41.66
11114;BME280;5610;52.154;9.198;2023-06-10T10:29:24;100820.50;;;31.89;43.78
11114;BME280;5610;52.154;9.198;2023-06-10T10:32:11;100821.84;;;32.35;41.76
11114;BME280;5610;52.154;9.198;2023-06-10T10:35:03;100824.84;;;32.75;39.58
11114;BME280;5610;52.154;9.198;2023-06-10T10:37:52;100822.56;;;33.14;39.74
11114;BME280;5610;52.154;9.198;2023-06-10T10:40:38;100823.31;;;33.44;39.21
11114;BME280;5610;52.154;9.198;2023-06-10T10:43:23;100823.91;;;33.58;39.08
11114;BME280;5610;52.154;9.198;2023-06-10T10:46:12;100824.47;;;33.83;37.77
11114;BME280;5610;52.154;9.198;2023-06-10T10:48:58;100825.00;;;34.21;37.14
11114;BME280;5610;52.154;9.198;2023-06-10T10:51:56;100825.97;;;34.72;37.23
11114;BME280;5610;52.154;9.198;2023-06-10T10:54:43;100816.22;;;34.98;35.81
11114;BME280;5610;52.154;9.198;2023-06-10T10:57:30;100816.84;;;35.38;37.00
11114;BME280;5610;52.154;9.198;2023-06-10T11:00:24;100811.28;;;36.16;38.31
11114;BME280;5610;52.154;9.198;2023-06-10T11:03:13;100818.66;;;37.50;34.94
11114;BME280;5610;52.154;9.198;2023-06-10T11:06:12;100816.00;;;39.61;32.33
11114;BME280;5610;52.154;9.198;2023-06-10T11:08:58;100811.31;;;41.04;30.49
11114;BME280;5610;52.154;9.198;2023-06-10T11:11:49;100808.84;;;42.79;29.05
11114;BME280;5610;52.154;9.198;2023-06-10T11:14:35;100803.22;;;44.49;27.92
11114;BME280;5610;52.154;9.198;2023-06-10T11:17:20;100803.25;;;45.56;26.39
11114;BME280;5610;52.154;9.198;2023-06-10T11:20:06;100801.66;;;46.38;25.54
11114;BME280;5610;52.154;9.198;2023-06-10T11:23:01;100801.78;;;47.49;24.36
11114;BME280;5610;52.154;9.198;2023-06-10T11:25:46;100808.41;;;48.12;24.50
11114;BME280;5610;52.154;9.198;2023-06-10T11:28:31;100802.44;;;48.35;24.07
11114;BME280;5610;52.154;9.198;2023-06-10T11:31:19;100792.66;;;49.07;23.04
11114;BME280;5610;52.154;9.198;2023-06-10T11:34:06;100791.38;;;49.29;24.15
11114;BME280;5610;52.154;9.198;2023-06-10T11:36:51;100793.38;;;49.29;22.77
11114;BME280;5610;52.154;9.198;2023-06-10T11:39:38;100790.28;;;49.09;24.27
11114;BME280;5610;52.154;9.198;2023-06-10T11:42:24;100782.56;;;49.55;22.42
11114;BME280;5610;52.154;9.198;2023-06-10T11:45:09;100786.97;;;50.17;22.46
11114;BME280;5610;52.154;9.198;2023-06-10T11:47:56;100787.63;;;49.49;23.61
11114;BME280;5610;52.154;9.198;2023-06-10T11:50:41;100788.78;;;50.50;22.19
11114;BME280;5610;52.154;9.198;2023-06-10T11:53:26;100785.81;;;50.74;21.83
11114;BME280;5610;52.154;9.198;2023-06-10T11:56:13;100782.91;;;51.15;21.47
11114;BME280;5610;52.154;9.198;2023-06-10T11:59:00;100777.44;;;50.94;21.86
11114;BME280;5610;52.154;9.198;2023-06-10T12:01:48;100774.81;;;51.01;22.08
11114;BME280;5610;52.154;9.198;2023-06-10T12:04:33;100769.78;;;51.42;22.22
11114;BME280;5610;52.154;9.198;2023-06-10T12:07:19;100768.41;;;51.35;22.43
11114;BME280;5610;52.154;9.198;2023-06-10T12:10:06;100765.69;;;51.55;22.11
11114;BME280;5610;52.154;9.198;2023-06-10T12:12:53;100758.31;;;51.06;23.67
11114;BME280;5610;52.154;9.198;2023-06-10T12:15:38;100762.72;;;51.04;21.56
11114;BME280;5610;52.154;9.198;2023-06-10T12:18:24;100763.44;;;51.01;22.44
11114;BME280;5610;52.154;9.198;2023-06-10T12:21:19;100752.28;;;51.08;22.11
11114;BME280;5610;52.154;9.198;2023-06-10T12:24:07;100755.31;;;50.55;22.66
11114;BME280;5610;52.154;9.198;2023-06-10T12:26:53;100749.19;;;51.13;22.97
11114;BME280;5610;52.154;9.198;2023-06-10T12:29:50;100748.38;;;51.13;23.72
11114;BME280;5610;52.154;9.198;2023-06-10T12:32:43;100745.91;;;51.27;22.23
11114;BME280;5610;52.154;9.198;2023-06-10T12:35:29;100746.09;;;51.18;22.40
11114;BME280;5610;52.154;9.198;2023-06-10T12:38:14;100738.63;;;51.61;22.15
11114;BME280;5610;52.154;9.198;2023-06-10T12:41:01;100733.22;;;51.56;22.33
11114;BME280;5610;52.154;9.198;2023-06-10T12:43:47;100726.34;;;51.57;21.92
11114;BME280;5610;52.154;9.198;2023-06-10T12:46:37;100725.03;;;51.19;23.58
11114;BME280;5610;52.154;9.198;2023-06-10T12:49:22;100732.03;;;51.92;22.04
11114;BME280;5610;52.154;9.198;2023-06-10T12:52:07;100726.66;;;50.45;22.26
11114;BME280;5610;52.154;9.198;2023-06-10T12:54:53;100712.25;;;50.81;22.85
11114;BME280;5610;52.154;9.198;2023-06-10T12:57:47;100716.38;;;50.12;22.88
11114;BME280;5610;52.154;9.198;2023-06-10T13:00:33;100718.91;;;50.58;23.46
11114;BME280;5610;52.154;9.198;2023-06-10T13:03:20;100721.91;;;50.49;24.13
11114;BME280;5610;52.154;9.198;2023-06-10T13:06:05;100718.81;;;50.54;22.91
11114;BME280;5610;52.154;9.198;2023-06-10T13:08:52;100720.97;;;50.89;22.93
11114;BME280;5610;52.154;9.198;2023-06-10T13:11:37;100713.00;;;50.78;23.45
11114;BME280;5610;52.154;9.198;2023-06-10T13:14:22;100709.94;;;50.71;23.62
11114;BME280;5610;52.154;9.198;2023-06-10T13:17:08;100722.09;;;51.31;22.43
11114;BME280;5610;52.154;9.198;2023-06-10T13:19:54;100719.84;;;51.09;23.12
11114;BME280;5610;52.154;9.198;2023-06-10T13:22:39;100720.44;;;51.15;23.40
11114;BME280;5610;52.154;9.198;2023-06-10T13:25:25;100713.13;;;51.14;22.28
11114;BME280;5610;52.154;9.198;2023-06-10T13:28:10;100702.41;;;50.19;23.08
11114;BME280;5610;52.154;9.198;2023-06-10T13:30:55;100701.47;;;50.87;22.80
11114;BME280;5610;52.154;9.198;2023-06-10T13:33:40;100696.06;;;51.29;22.15
11114;BME280;5610;52.154;9.198;2023-06-10T13:36:28;100698.34;;;51.75;21.87
11114;BME280;5610;52.154;9.198;2023-06-10T13:39:14;100693.31;;;51.01;22.04
11114;BME280;5610;52.154;9.198;2023-06-10T13:41:59;100688.03;;;51.16;21.86
11114;BME280;5610;52.154;9.198;2023-06-10T13:44:45;100678.97;;;50.78;21.50
11114;BME280;5610;52.154;9.198;2023-06-10T13:47:31;100673.53;;;50.73;22.11
11114;BME280;5610;52.154;9.198;2023-06-10T13:50:16;100673.34;;;50.66;22.64
11114;BME280;5610;52.154;9.198;2023-06-10T13:53:03;100677.25;;;50.46;22.97
11114;BME280;5610;52.154;9.198;2023-06-10T13:55:48;100669.41;;;50.71;22.19
11114;BME280;5610;52.154;9.198;2023-06-10T13:58:34;100663.84;;;50.02;23.68
11114;BME280;5610;52.154;9.198;2023-06-10T14:01:23;100666.69;;;47.39;25.73
11114;BME280;5610;52.154;9.198;2023-06-10T14:04:08;100667.94;;;45.35;27.32
11114;BME280;5610;52.154;9.198;2023-06-10T14:06:54;100663.28;;;44.15;27.50
11114;BME280;5610;52.154;9.198;2023-06-10T14:09:41;100666.63;;;42.85;30.01
11114;BME280;5610;52.154;9.198;2023-06-10T14:12:26;100656.25;;;41.63;31.31
11114;BME280;5610;52.154;9.198;2023-06-10T14:15:11;100653.97;;;40.75;31.86
11114;BME280;5610;52.154;9.198;2023-06-10T14:17:56;100661.19;;;40.13;33.30
11114;BME280;5610;52.154;9.198;2023-06-10T14:20:41;100651.91;;;39.18;33.38
11114;BME280;5610;52.154;9.198;2023-06-10T14:23:26;100656.75;;;38.77;35.00
11114;BME280;5610;52.154;9.198;2023-06-10T14:26:13;100659.25;;;38.48;35.91
11114;BME280;5610;52.154;9.198;2023-06-10T14:28:58;100658.09;;;37.98;35.84
11114;BME280;5610;52.154;9.198;2023-06-10T14:31:44;100650.63;;;37.31;36.73
11114;BME280;5610;52.154;9.198;2023-06-10T14:34:29;100653.28;;;37.05;37.51
11114;BME280;5610;52.154;9.198;2023-06-10T14:37:18;100648.53;;;36.58;36.98
11114;BME280;5610;52.154;9.198;2023-06-10T14:40:03;100652.56;;;36.14;37.08